TimeEST,TemperatureF,Dew PointF,Humidity,Sea Level PressureIn,VisibilityMPH,Wind Direction,Wind SpeedMPH,Gust SpeedMPH,PrecipitationIn,Events,Conditions,WindDirDegrees,DateUTC
12:36 AM,1.4,-4.0,78,30.35,10.0,SSW,3.5,-,N/A,,Clear,200,2009-01-26 05:36:00
12:55 AM,3.2,-2.2,78,30.35,10.0,SSW,4.6,-,N/A,,Clear,200,2009-01-26 05:55:00
1:16 AM,3.2,-2.2,78,30.36,10.0,Calm,Calm,-,N/A,,Clear,0,2009-01-26 06:16:00
1:37 AM,3.2,-2.2,78,30.36,10.0,South,4.6,-,N/A,,Scattered Clouds,190,2009-01-26 06:37:00
1:55 AM,3.2,-2.2,78,30.36,10.0,South,5.8,-,N/A,,Clear,190,2009-01-26 06:55:00
2:16 AM,1.4,-4.0,78,30.36,10.0,South,3.5,-,N/A,,Scattered Clouds,190,2009-01-26 07:16:00
2:36 AM,3.2,-2.2,78,30.36,10.0,South,3.5,-,N/A,,Scattered Clouds,190,2009-01-26 07:36:00
2:55 AM,1.4,-4.0,78,30.37,10.0,South,3.5,-,N/A,,Clear,190,2009-01-26 07:55:00
3:16 AM,1.4,-4.0,78,30.38,10.0,South,4.6,-,N/A,,Clear,190,2009-01-26 08:16:00
3:36 AM,1.4,-4.0,78,30.38,10.0,South,4.6,-,N/A,,Clear,190,2009-01-26 08:36:00
3:55 AM,-0.4,-4.0,85,30.38,10.0,South,4.6,-,N/A,,Scattered Clouds,190,2009-01-26 08:55:00
4:16 AM,1.4,-4.0,78,30.37,10.0,South,5.8,-,N/A,,Overcast,190,2009-01-26 09:16:00
4:55 AM,1.4,-2.2,85,30.37,10.0,Calm,Calm,-,N/A,,Scattered Clouds,0,2009-01-26 09:55:00
5:17 AM,1.4,-2.2,85,30.38,10.0,SSW,5.8,-,N/A,,Clear,200,2009-01-26 10:17:00
5:37 AM,-0.4,-4.0,85,30.38,10.0,South,4.6,-,N/A,,Clear,190,2009-01-26 10:37:00
5:55 AM,-2.2,-5.8,85,30.38,10.0,South,4.6,-,N/A,,Clear,190,2009-01-26 10:55:00
6:16 AM,-0.4,-4.0,85,30.38,7.0,Calm,Calm,-,N/A,,Clear,0,2009-01-26 11:16:00
6:36 AM,-0.4,-4.0,85,30.38,7.0,South,3.5,-,N/A,,Clear,180,2009-01-26 11:36:00
6:55 AM,-2.2,-5.8,85,30.39,7.0,South,4.6,-,N/A,,Clear,190,2009-01-26 11:55:00
7:16 AM,-2.2,-5.8,85,30.40,7.0,South,4.6,-,N/A,,Clear,190,2009-01-26 12:16:00
7:37 AM,-0.4,-4.0,85,30.40,7.0,South,4.6,-,N/A,,Clear,190,2009-01-26 12:37:00
7:55 AM,-0.4,-4.0,85,30.40,7.0,SSW,4.6,-,N/A,,Clear,200,2009-01-26 12:55:00
8:16 AM,-0.4,-4.0,85,30.41,7.0,SSW,3.5,-,N/A,,Scattered Clouds,200,2009-01-26 13:16:00
8:37 AM,-0.4,-4.0,85,30.41,7.0,SSW,5.8,-,N/A,,Scattered Clouds,200,2009-01-26 13:37:00
8:55 AM,1.4,-2.2,85,30.42,7.0,SSW,4.6,-,N/A,,Clear,210,2009-01-26 13:55:00
9:17 AM,3.2,-0.4,85,30.41,7.0,South,3.5,-,N/A,,Clear,190,2009-01-26 14:17:00
9:37 AM,5.0,3.2,92,30.42,7.0,SSW,3.5,-,N/A,,Clear,200,2009-01-26 14:37:00
9:55 AM,8.6,3.2,79,30.42,7.0,SW,3.5,-,N/A,,Scattered Clouds,220,2009-01-26 14:55:00
10:17 AM,10.4,5.0,79,30.43,10.0,South,5.8,-,N/A,,Mostly Cloudy,190,2009-01-26 15:17:00
11:17 AM,17.6,5.0,58,30.42,10.0,SW,4.6,-,N/A,,Overcast,230,2009-01-26 16:17:00
11:55 AM,19.4,8.6,63,30.41,10.0,SW,5.8,-,N/A,,Scattered Clouds,220,2009-01-26 16:55:00
12:36 PM,19.4,8.6,63,30.41,10.0,SSW,5.8,-,N/A,,Overcast,200,2009-01-26 17:36:00
12:55 PM,19.4,8.6,63,30.41,10.0,SW,5.8,-,N/A,,Overcast,230,2009-01-26 17:55:00
1:16 PM,21.2,8.6,58,30.40,10.0,WSW,6.9,-,N/A,,Overcast,250,2009-01-26 18:16:00
1:37 PM,21.2,8.6,58,30.39,10.0,West,8.1,-,N/A,,Overcast,260,2009-01-26 18:37:00
2:17 PM,21.2,8.6,58,30.40,10.0,WSW,9.2,-,N/A,,Overcast,240,2009-01-26 19:17:00
2:36 PM,21.2,8.6,58,30.40,10.0,WSW,8.1,-,N/A,,Overcast,250,2009-01-26 19:36:00
2:55 PM,21.2,8.6,58,30.39,10.0,West,5.8,-,N/A,,Overcast,280,2009-01-26 19:55:00
3:55 PM,21.2,8.6,58,30.39,10.0,West,5.8,-,N/A,,Overcast,270,2009-01-26 20:55:00
4:16 PM,21.2,8.6,58,30.40,10.0,West,8.1,-,N/A,,Overcast,270,2009-01-26 21:16:00
4:36 PM,21.2,8.6,58,30.40,10.0,WNW,9.2,-,N/A,,Overcast,300,2009-01-26 21:36:00
4:55 PM,21.2,6.8,54,30.40,10.0,WNW,9.2,-,N/A,,Overcast,290,2009-01-26 21:55:00
5:17 PM,19.4,6.8,58,30.40,10.0,NW,6.9,-,N/A,,Overcast,310,2009-01-26 22:17:00
6:17 PM,19.4,8.6,63,30.42,10.0,West,6.9,-,N/A,,Overcast,280,2009-01-26 23:17:00
6:37 PM,19.4,8.6,63,30.42,10.0,West,6.9,-,N/A,,Overcast,280,2009-01-26 23:37:00
6:55 PM,19.4,8.6,63,30.42,10.0,West,5.8,-,N/A,,Overcast,280,2009-01-26 23:55:00
7:17 PM,19.4,8.6,63,30.42,10.0,West,5.8,-,N/A,,Overcast,270,2009-01-27 00:17:00
7:37 PM,19.4,6.8,58,30.42,10.0,West,4.6,-,N/A,,Overcast,270,2009-01-27 00:37:00
7:57 PM,19.4,8.6,63,30.42,10.0,West,4.6,-,N/A,,Overcast,280,2009-01-27 00:57:00
8:17 PM,19.4,8.6,63,30.41,10.0,Calm,Calm,-,N/A,,Overcast,0,2009-01-27 01:17:00
8:36 PM,19.4,5.0,54,30.40,10.0,Calm,Calm,-,N/A,,Overcast,0,2009-01-27 01:36:00
8:55 PM,19.4,5.0,54,30.40,10.0,Calm,Calm,-,N/A,,Overcast,0,2009-01-27 01:55:00
9:37 PM,19.4,6.8,58,30.42,10.0,West,3.5,-,N/A,,Overcast,260,2009-01-27 02:37:00
10:16 PM,17.6,6.8,63,30.43,10.0,WSW,3.5,-,N/A,,Overcast,240,2009-01-27 03:16:00
10:55 PM,17.6,6.8,63,30.42,10.0,SW,3.5,-,N/A,,Overcast,220,2009-01-27 03:55:00
11:16 PM,17.6,6.8,63,30.42,10.0,SW,3.5,-,N/A,,Mostly Cloudy,230,2009-01-27 04:16:00